createdAt,value
2023-02-01T00:00:28.364Z,7.53
2023-02-01T00:02:55.195Z,7.80
2023-02-01T00:05:21.996Z,7.78
2023-02-01T00:07:52.097Z,7.03
2023-02-01T00:12:45.916Z,6.30
2023-02-01T00:15:12.891Z,6.85
2023-02-01T00:17:39.689Z,6.45
2023-02-01T00:20:07.067Z,7.90
2023-02-01T00:22:33.896Z,8.23
2023-02-01T00:25:00.836Z,8.18
2023-02-01T00:27:27.634Z,8.57
2023-02-01T00:29:56.752Z,8.23
2023-02-01T00:32:23.734Z,8.77
2023-02-01T00:34:50.446Z,8.75
2023-02-01T00:37:17.267Z,8.60
2023-02-01T00:39:44.034Z,8.98
2023-02-01T00:42:11.146Z,8.70
2023-02-01T00:44:38.001Z,9.50
2023-02-01T00:47:04.809Z,8.88
2023-02-01T00:49:31.589Z,8.48
2023-02-01T00:51:58.416Z,8.32
2023-02-01T00:54:25.263Z,8.63
2023-02-01T00:56:52.236Z,9.55
2023-02-01T00:59:19.417Z,8.10
2023-02-01T01:01:46.335Z,8.52
2023-02-01T01:04:13.153Z,9.20
2023-02-01T01:06:39.918Z,8.23
2023-02-01T01:09:08.509Z,9.25
2023-02-01T01:11:38.468Z,8.52
2023-02-01T01:14:08.255Z,8.05
2023-02-01T01:16:36.258Z,7.57
2023-02-01T01:19:03.191Z,8.23
2023-02-01T01:21:31.217Z,8.40
2023-02-01T01:23:58.486Z,8.85
2023-02-01T01:26:28.309Z,8.25
2023-02-01T01:29:00.196Z,8.25
2023-02-01T01:31:28.173Z,6.85
2023-02-01T01:33:57.624Z,6.90
2023-02-01T01:36:25.827Z,7.70
2023-02-01T01:38:52.788Z,7.85
2023-02-01T01:41:24.555Z,7.15
2023-02-01T01:43:58.183Z,8.20
2023-02-01T01:46:32.393Z,8.30
2023-02-01T01:49:11.767Z,8.18
2023-02-01T01:51:45.433Z,8.02
2023-02-01T01:54:19.744Z,8.18
2023-02-01T01:56:52.903Z,7.68
2023-02-01T01:59:22.266Z,7.63
2023-02-01T02:01:49.565Z,9.03
2023-02-01T02:04:16.743Z,8.27
2023-02-01T02:07:04.429Z,8.88
2023-02-01T02:09:31.391Z,8.93
2023-02-01T02:11:58.237Z,8.85
2023-02-01T02:14:26.994Z,9.63
2023-02-01T02:16:58.249Z,10.15
2023-02-01T02:19:35.482Z,9.77
2023-02-01T02:22:05.403Z,11.07
2023-02-01T02:25:09.836Z,11.23
2023-02-01T02:27:36.586Z,10.98
2023-02-01T02:30:25.375Z,11.07
2023-02-01T02:33:04.522Z,11.50
2023-02-01T02:35:46.205Z,10.23
2023-02-01T02:38:26.107Z,10.35
2023-02-01T02:40:59.507Z,10.27
2023-02-01T02:43:55.586Z,9.70
2023-02-01T02:46:47.533Z,10.55
2023-02-01T02:49:38.066Z,10.88
2023-02-01T02:52:37.675Z,11.18
2023-02-01T02:55:06.838Z,10.98
2023-02-01T02:57:56.965Z,11.70
2023-02-01T03:00:48.485Z,11.65
2023-02-01T03:03:34.003Z,10.73
2023-02-01T03:06:01.462Z,11.07
2023-02-01T03:08:30.664Z,11.13
2023-02-01T03:11:05.399Z,9.60
2023-02-01T03:14:00.047Z,10.40
2023-02-01T03:16:32.564Z,10.90
2023-02-01T03:19:08.381Z,11.20
2023-02-01T03:21:46.184Z,10.52
2023-02-01T03:24:34.314Z,11.70
2023-02-01T03:27:28.322Z,12.82
2023-02-01T03:29:55.122Z,12.30
2023-02-01T03:32:22.696Z,12.60
2023-02-01T03:34:51.096Z,13.38
2023-02-01T03:37:27.524Z,12.43
2023-02-01T03:40:12.646Z,12.65
2023-02-01T03:42:45.041Z,12.52
2023-02-01T03:45:32.348Z,13.50
2023-02-01T03:48:01.391Z,12.70
2023-02-01T03:50:32.841Z,12.13
2023-02-01T03:53:06.219Z,12.25
2023-02-01T03:55:33.937Z,12.52
2023-02-01T03:58:09.824Z,12.43
2023-02-01T04:00:36.998Z,13.95
2023-02-01T04:03:08.366Z,12.48
2023-02-01T04:05:35.640Z,13.52
2023-02-01T04:08:06.198Z,13.00
2023-02-01T04:10:32.973Z,13.05
2023-02-01T04:12:59.706Z,14.43
2023-02-01T04:15:26.570Z,12.82
2023-02-01T04:17:53.247Z,12.65
2023-02-01T04:20:20.731Z,13.70
2023-02-01T04:22:47.570Z,12.30
2023-02-01T04:25:14.433Z,12.48
2023-02-01T04:30:10.832Z,13.63
2023-02-01T04:32:38.731Z,12.65
2023-02-01T04:35:06.347Z,13.15
2023-02-01T04:37:33.623Z,12.50
2023-02-01T04:40:00.329Z,12.50
2023-02-01T04:42:27.071Z,13.27
2023-02-01T04:44:53.779Z,13.80
2023-02-01T04:47:20.514Z,13.52
2023-02-01T04:49:47.360Z,12.32
2023-02-01T04:52:14.148Z,11.90
2023-02-01T04:54:40.913Z,12.35
2023-02-01T04:57:07.653Z,13.57
2023-02-01T04:59:34.473Z,13.50
2023-02-01T05:02:01.180Z,13.18
2023-02-01T05:04:28.078Z,13.50
2023-02-01T05:06:54.823Z,13.20
2023-02-01T05:09:22.801Z,12.10
2023-02-01T05:12:08.133Z,12.73
2023-02-01T05:14:35.025Z,12.70
2023-02-01T05:17:01.726Z,13.30
2023-02-01T05:19:28.537Z,12.88
2023-02-01T05:21:55.234Z,13.10
2023-02-01T05:24:21.975Z,13.10
2023-02-01T05:26:49.676Z,17.55
2023-02-01T05:29:18.325Z,17.30
2023-02-01T05:31:47.183Z,16.77
2023-02-01T05:34:15.034Z,14.75
2023-02-01T05:36:41.782Z,14.40
2023-02-01T05:39:08.700Z,13.75
2023-02-01T05:41:35.707Z,15.32
2023-02-01T05:44:03.691Z,14.95
2023-02-01T05:46:30.776Z,14.30
2023-02-01T05:48:57.576Z,13.48
2023-02-01T05:51:24.422Z,14.30
2023-02-01T05:53:51.155Z,12.85
2023-02-01T05:56:17.889Z,13.77
2023-02-01T05:58:44.921Z,13.88
2023-02-01T06:01:11.676Z,14.15
2023-02-01T06:03:38.565Z,13.60
2023-02-01T06:06:05.565Z,13.27
2023-02-01T06:08:32.286Z,12.00
2023-02-01T06:11:05.075Z,13.20
2023-02-01T06:13:34.426Z,12.20
2023-02-01T06:16:03.380Z,12.60
2023-02-01T06:18:31.743Z,12.45
2023-02-01T06:21:01.108Z,14.10
2023-02-01T06:23:31.484Z,13.57
2023-02-01T06:28:33.863Z,11.38
2023-02-01T06:31:07.936Z,10.85
2023-02-01T06:33:36.481Z,11.15
2023-02-01T06:36:06.549Z,11.57
2023-02-01T06:41:04.318Z,10.27
2023-02-01T06:43:31.438Z,9.57
2023-02-01T06:46:07.169Z,10.80
2023-02-01T06:48:34.955Z,10.95
2023-02-01T06:51:02.482Z,10.93
2023-02-01T06:53:29.605Z,10.55
2023-02-01T06:56:01.579Z,10.82
2023-02-01T06:58:33.561Z,10.38
2023-02-01T07:01:07.420Z,10.70
2023-02-01T07:03:34.426Z,11.63
2023-02-01T07:06:01.575Z,10.63
2023-02-01T07:08:29.398Z,11.13
2023-02-01T07:10:56.136Z,12.18
2023-02-01T07:13:23.115Z,12.00
2023-02-01T07:15:50.094Z,11.45
2023-02-01T07:18:16.987Z,11.20
2023-02-01T07:20:43.769Z,10.95
2023-02-01T07:23:11.581Z,11.38
2023-02-01T07:25:38.341Z,11.73
2023-02-01T07:28:05.182Z,15.07
2023-02-01T07:30:34.570Z,13.50
2023-02-01T07:33:02.238Z,12.07
2023-02-01T07:35:29.838Z,12.38
2023-02-01T07:37:58.916Z,12.93
2023-02-01T07:40:29.740Z,13.82
2023-02-01T07:42:56.792Z,12.65
2023-02-01T07:45:24.419Z,12.20
2023-02-01T07:47:54.231Z,12.80
2023-02-01T07:50:21.541Z,11.48
2023-02-01T07:52:48.845Z,11.68
2023-02-01T07:55:15.761Z,13.02
2023-02-01T07:57:43.038Z,13.23
2023-02-01T08:00:29.285Z,12.25
2023-02-01T08:02:59.147Z,12.55
2023-02-01T08:05:26.240Z,12.88
2023-02-01T08:07:53.028Z,13.52
2023-02-01T08:10:20.497Z,14.55
2023-02-01T08:12:52.531Z,12.38
2023-02-01T08:15:19.609Z,11.88
2023-02-01T08:17:50.277Z,11.82
2023-02-01T08:20:19.142Z,11.98
2023-02-01T08:22:45.985Z,12.05
2023-02-01T08:25:12.934Z,13.18
2023-02-01T08:27:39.691Z,12.48
2023-02-01T08:30:08.230Z,12.45
2023-02-01T08:32:36.556Z,10.60
2023-02-01T08:35:04.882Z,11.52
2023-02-01T08:37:31.970Z,12.07
2023-02-01T08:39:58.667Z,12.18
2023-02-01T08:42:44.265Z,12.35
2023-02-01T08:45:11.634Z,12.20
2023-02-01T08:47:39.093Z,11.02
2023-02-01T08:50:06.246Z,11.95
2023-02-01T08:52:33.002Z,10.63
2023-02-01T08:54:59.751Z,11.77
2023-02-01T08:57:26.705Z,12.30
2023-02-01T08:59:53.423Z,12.48
2023-02-01T09:02:20.268Z,11.88
2023-02-01T09:04:47.095Z,11.80
2023-02-01T09:07:18.716Z,12.38
2023-02-01T09:09:46.332Z,12.82
2023-02-01T09:12:13.077Z,12.75
2023-02-01T09:14:39.893Z,13.40
2023-02-01T09:17:06.711Z,13.85
2023-02-01T09:19:33.725Z,13.57
2023-02-01T09:22:00.448Z,14.13
2023-02-01T09:24:27.390Z,13.70
2023-02-01T09:26:54.405Z,13.75
2023-02-01T09:29:21.218Z,14.00
2023-02-01T09:31:57.809Z,13.70
2023-02-01T09:34:29.671Z,14.38
2023-02-01T09:36:56.620Z,13.32
2023-02-01T09:39:23.663Z,13.40
2023-02-01T09:42:05.617Z,13.95
2023-02-01T09:45:07.227Z,12.30
2023-02-01T09:47:36.241Z,11.65
2023-02-01T09:50:10.872Z,11.55
2023-02-01T09:52:46.337Z,11.25
2023-02-01T09:55:21.728Z,10.82
2023-02-01T09:57:59.464Z,10.85
2023-02-01T10:00:30.995Z,12.13
2023-02-01T10:02:58.377Z,11.63
2023-02-01T10:05:38.329Z,11.57
2023-02-01T10:08:08.459Z,11.82
2023-02-01T10:13:33.170Z,11.77
2023-02-01T10:16:15.285Z,11.50
2023-02-01T10:18:52.948Z,11.10
2023-02-01T10:21:29.697Z,11.85
2023-02-01T10:24:35.385Z,12.90
2023-02-01T10:27:30.424Z,12.07
2023-02-01T10:30:05.122Z,12.45
2023-02-01T10:32:35.811Z,11.48
2023-02-01T10:35:14.180Z,12.98
2023-02-01T10:37:42.670Z,12.93
2023-02-01T10:40:25.501Z,13.25
2023-02-01T10:43:02.966Z,13.32
2023-02-01T10:45:32.880Z,12.85
2023-02-01T10:48:01.754Z,12.90
2023-02-01T10:50:43.856Z,12.57
2023-02-01T10:53:24.855Z,13.00
2023-02-01T10:55:54.194Z,13.43
2023-02-01T10:58:22.237Z,13.27
2023-02-01T11:01:03.977Z,11.85
2023-02-01T11:03:39.852Z,12.52
2023-02-01T11:06:41.893Z,13.15
2023-02-01T11:09:08.631Z,13.65
2023-02-01T11:11:47.650Z,13.07
2023-02-01T11:14:17.451Z,13.27
2023-02-01T11:16:50.364Z,12.48
2023-02-01T11:19:18.670Z,13.07
2023-02-01T11:21:50.151Z,12.82
2023-02-01T11:24:37.107Z,13.88
2023-02-01T11:27:07.276Z,12.70
2023-02-01T11:32:06.401Z,11.95
2023-02-01T11:35:06.719Z,10.75
2023-02-01T11:37:38.381Z,10.80
2023-02-01T11:40:35.591Z,10.75
2023-02-01T11:43:09.662Z,10.15
2023-02-01T11:45:38.490Z,10.80
2023-02-01T11:48:26.299Z,10.82
2023-02-01T11:51:04.353Z,10.15
2023-02-01T11:54:00.667Z,9.80
2023-02-01T11:56:37.032Z,10.07
2023-02-01T11:59:30.971Z,9.27
2023-02-01T12:02:17.013Z,9.45
2023-02-01T12:05:00.698Z,10.70
2023-02-01T12:08:00.191Z,10.80
2023-02-01T12:10:34.385Z,10.80
2023-02-01T12:13:35.049Z,10.57
2023-02-01T12:16:08.385Z,10.68
2023-02-01T12:18:41.951Z,11.00
2023-02-01T12:21:24.118Z,11.77
2023-02-01T12:24:04.209Z,10.88
2023-02-01T12:26:52.748Z,10.70
2023-02-01T12:29:57.144Z,9.95
2023-02-01T12:32:27.030Z,9.55
2023-02-01T12:35:15.052Z,10.00
2023-02-01T12:37:56.974Z,10.02
2023-02-01T12:40:34.153Z,11.10
2023-02-01T12:43:11.523Z,11.38
2023-02-01T12:45:50.852Z,11.18
2023-02-01T12:48:52.959Z,9.57
2023-02-01T12:51:25.104Z,9.23
2023-02-01T12:54:01.796Z,10.50
2023-02-01T12:56:41.316Z,12.55
2023-02-01T12:59:41.509Z,11.35
2023-02-01T13:02:28.827Z,10.05
2023-02-01T13:05:34.241Z,10.02
2023-02-01T13:08:15.893Z,9.70
2023-02-01T13:10:57.919Z,10.68
2023-02-01T13:13:32.612Z,12.20
2023-02-01T13:16:14.578Z,18.92
2023-02-01T13:18:46.526Z,20.38
2023-02-01T13:21:21.804Z,17.60
2023-02-01T13:23:49.999Z,15.38
2023-02-01T13:26:16.809Z,15.45
2023-02-01T13:29:07.146Z,12.85
2023-02-01T13:32:01.926Z,10.07
2023-02-01T13:34:40.708Z,9.85
2023-02-01T13:37:10.263Z,8.90
2023-02-01T13:39:37.575Z,9.48
2023-02-01T13:42:18.404Z,10.32
2023-02-01T13:44:51.376Z,9.73
2023-02-01T13:47:26.869Z,10.30
2023-02-01T13:49:57.910Z,11.10
2023-02-01T13:52:39.740Z,10.63
2023-02-01T13:55:21.706Z,9.90
2023-02-01T13:58:00.648Z,10.45
2023-02-01T14:00:38.989Z,10.35
2023-02-01T14:03:05.696Z,11.30
2023-02-01T14:05:32.660Z,10.05
2023-02-01T14:08:08.909Z,10.20
2023-02-01T14:10:48.798Z,8.85
2023-02-01T14:13:33.399Z,8.20
2023-02-01T14:16:03.289Z,11.80
2023-02-01T14:18:36.348Z,10.18
2023-02-01T14:21:25.377Z,10.88
2023-02-01T14:23:55.452Z,11.80
2023-02-01T14:26:26.346Z,11.52
2023-02-01T14:28:55.516Z,11.35
2023-02-01T14:32:00.738Z,11.90
2023-02-01T14:34:27.805Z,12.55
2023-02-01T14:37:06.750Z,11.23
2023-02-01T14:39:49.968Z,10.85
2023-02-01T14:42:27.840Z,11.07
2023-02-01T14:45:14.639Z,10.98
2023-02-01T14:47:41.796Z,10.70
2023-02-01T14:50:08.508Z,11.13
2023-02-01T14:53:07.677Z,11.27
2023-02-01T14:55:59.894Z,10.68
2023-02-01T14:58:35.596Z,10.85
2023-02-01T15:01:32.773Z,10.07
2023-02-01T15:04:19.700Z,10.55
2023-02-01T15:06:58.504Z,8.60
2023-02-01T15:09:29.785Z,8.32
2023-02-01T15:12:11.700Z,8.25
2023-02-01T15:14:49.830Z,8.23
2023-02-01T15:17:37.416Z,9.15
2023-02-01T15:20:24.575Z,9.32
2023-02-01T15:23:05.893Z,9.82
2023-02-01T15:25:37.808Z,10.93
2023-02-01T15:28:07.047Z,9.40
2023-02-01T15:30:35.915Z,8.15
2023-02-01T15:33:18.346Z,8.05
2023-02-01T15:35:48.610Z,8.63
2023-02-01T15:38:24.603Z,8.52
2023-02-01T15:41:06.750Z,9.00
2023-02-01T15:44:08.933Z,9.15
2023-02-01T15:46:43.536Z,9.10
2023-02-01T15:49:32.965Z,8.07
2023-02-01T15:52:02.073Z,9.48
2023-02-01T15:55:03.338Z,9.02
2023-02-01T15:57:35.174Z,8.85
2023-02-01T16:00:08.752Z,8.55
2023-02-01T16:02:53.845Z,9.60
2023-02-01T16:05:36.929Z,10.73
2023-02-01T16:08:04.994Z,7.97
2023-02-01T16:10:32.918Z,8.85
2023-02-01T16:13:01.379Z,9.30
2023-02-01T16:15:30.785Z,9.10
2023-02-01T16:17:57.497Z,4.97
2023-02-01T16:20:24.293Z,4.32
2023-02-01T16:22:51.324Z,4.50
2023-02-01T16:25:18.141Z,4.57
2023-02-01T16:27:44.857Z,7.32
2023-02-01T16:30:12.646Z,7.28
2023-02-01T16:32:39.826Z,9.52
2023-02-01T16:35:20.140Z,7.28
2023-02-01T16:37:47.104Z,8.57
2023-02-01T16:40:16.346Z,9.75
2023-02-01T16:42:43.329Z,11.95
2023-02-01T16:45:11.038Z,12.70
2023-02-01T16:47:42.765Z,14.50
2023-02-01T16:50:23.130Z,12.52
2023-02-01T16:52:51.451Z,13.60
2023-02-01T16:55:20.799Z,12.55
2023-02-01T16:57:48.571Z,20.45
2023-02-01T17:00:24.461Z,17.88
2023-02-01T17:02:52.677Z,15.27
2023-02-01T17:05:19.399Z,13.57
2023-02-01T17:07:46.513Z,13.68
2023-02-01T17:10:34.629Z,14.35
2023-02-01T17:13:03.034Z,12.98
2023-02-01T17:15:37.494Z,19.60
2023-02-01T17:18:04.614Z,19.75
2023-02-01T17:20:36.355Z,18.50
2023-02-01T17:23:04.789Z,17.00
2023-02-01T17:34:09.920Z,15.35
2023-02-01T17:36:36.791Z,14.15
2023-02-01T17:39:06.428Z,13.48
2023-02-01T17:41:34.608Z,10.82
2023-02-01T17:44:01.389Z,14.40
2023-02-01T17:46:28.547Z,18.00
2023-02-01T17:48:55.596Z,7.60
2023-02-01T17:51:27.957Z,6.22
2023-02-01T17:53:55.222Z,12.27
2023-02-01T17:56:26.055Z,7.80
2023-02-01T17:58:52.816Z,7.03
2023-02-01T18:01:22.612Z,10.05
2023-02-01T18:03:50.177Z,13.05
2023-02-01T18:06:19.767Z,12.75
2023-02-01T18:08:46.844Z,14.43
2023-02-01T18:11:19.336Z,14.15
2023-02-01T18:13:47.088Z,12.70
2023-02-01T18:16:22.563Z,12.05
2023-02-01T18:18:49.928Z,8.80
2023-02-01T18:21:18.842Z,6.85
2023-02-01T18:23:46.118Z,8.25
2023-02-01T18:26:15.052Z,7.10
2023-02-01T18:28:42.581Z,7.43
2023-02-01T18:31:25.383Z,8.32
2023-02-01T18:33:53.915Z,9.50
2023-02-01T18:36:21.481Z,8.40
2023-02-01T18:38:48.658Z,10.38
2023-02-01T18:41:18.563Z,12.27
2023-02-01T18:43:45.530Z,10.95
2023-02-01T18:46:13.147Z,11.00
2023-02-01T18:48:41.718Z,11.68
2023-02-01T18:51:13.329Z,15.98
2023-02-01T18:53:40.418Z,11.25
2023-02-01T18:56:07.966Z,6.88
2023-02-01T18:58:34.794Z,6.40
2023-02-01T19:01:08.866Z,8.45
2023-02-01T19:03:43.043Z,11.73
2023-02-01T19:06:14.047Z,6.63
2023-02-01T19:08:41.051Z,7.00
2023-02-01T19:11:12.711Z,10.07
2023-02-01T19:13:40.901Z,9.85
2023-02-01T19:16:09.367Z,8.93
2023-02-01T19:18:38.202Z,7.43
2023-02-01T19:21:14.017Z,5.72
2023-02-01T19:23:42.121Z,6.38
2023-02-01T19:26:17.105Z,5.30
2023-02-01T19:28:47.007Z,5.57
2023-02-01T19:31:13.836Z,5.20
2023-02-01T19:33:40.703Z,5.90
2023-02-01T19:36:09.934Z,5.03
2023-02-01T19:38:37.595Z,5.03
2023-02-01T19:41:04.656Z,6.53
2023-02-01T19:43:31.962Z,7.63
2023-02-01T19:45:58.712Z,7.38
2023-02-01T19:48:25.498Z,9.40
2023-02-01T19:50:52.295Z,11.25
2023-02-01T19:53:24.628Z,8.77
2023-02-01T19:55:51.660Z,6.03
2023-02-01T19:58:18.431Z,6.43
2023-02-01T20:00:44.383Z,6.40
2023-02-01T20:03:11.270Z,7.55
2023-02-01T20:05:38.137Z,9.90
2023-02-01T20:08:05.324Z,11.38
2023-02-01T20:10:32.100Z,9.25
2023-02-01T20:12:58.871Z,9.60
2023-02-01T20:15:27.579Z,11.25
2023-02-01T20:17:54.374Z,15.13
2023-02-01T20:20:21.431Z,19.60
2023-02-01T20:22:48.481Z,21.55
2023-02-01T20:25:15.351Z,15.00
2023-02-01T20:27:43.045Z,14.32
2023-02-01T20:30:10.608Z,28.05
2023-02-01T20:32:37.317Z,22.70
2023-02-01T20:35:04.226Z,15.15
2023-02-01T20:37:31.107Z,17.80
2023-02-01T20:39:58.001Z,20.02
2023-02-01T20:42:24.693Z,13.45
2023-02-01T20:44:51.472Z,9.90
2023-02-01T20:47:18.252Z,9.75
2023-02-01T20:49:45.058Z,13.50
2023-02-01T20:52:12.002Z,15.07
2023-02-01T20:54:38.732Z,13.45
2023-02-01T20:57:05.637Z,15.63
2023-02-01T20:59:32.368Z,16.30
2023-02-01T21:01:59.544Z,19.20
2023-02-01T21:04:28.116Z,22.30
2023-02-01T21:06:56.015Z,14.13
2023-02-01T21:09:24.048Z,15.02
2023-02-01T21:11:51.607Z,16.45
2023-02-01T21:14:19.064Z,16.77
2023-02-01T21:16:47.234Z,13.27
2023-02-01T21:19:13.960Z,13.23
2023-02-01T21:21:42.134Z,11.80
2023-02-01T21:24:09.599Z,12.35
2023-02-01T21:26:42.520Z,12.13
2023-02-01T21:29:11.881Z,12.18
2023-02-01T21:31:39.561Z,11.57
2023-02-01T21:34:07.371Z,11.85
2023-02-01T21:36:34.940Z,12.00
2023-02-01T21:39:03.888Z,11.38
2023-02-01T21:41:52.657Z,12.35
2023-02-01T21:44:19.669Z,11.95
2023-02-01T21:46:46.635Z,12.73
2023-02-01T21:49:13.754Z,11.10
2023-02-01T21:51:41.291Z,11.38
2023-02-01T21:54:09.926Z,10.20
2023-02-01T21:56:37.905Z,10.70
2023-02-01T21:59:04.822Z,9.85
2023-02-01T22:01:31.921Z,10.63
2023-02-01T22:03:58.736Z,9.75
2023-02-01T22:06:28.402Z,9.88
2023-02-01T22:08:55.369Z,9.43
2023-02-01T22:11:22.639Z,8.68
2023-02-01T22:13:49.888Z,8.00
2023-02-01T22:16:18.309Z,8.25
2023-02-01T22:18:45.872Z,7.40
2023-02-01T22:21:13.056Z,7.05
2023-02-01T22:23:40.144Z,6.75
2023-02-01T22:26:09.194Z,7.20
2023-02-01T22:28:40.310Z,7.53
2023-02-01T22:31:09.447Z,8.32
2023-02-01T22:33:36.635Z,9.17
2023-02-01T22:36:05.108Z,8.95
2023-02-01T22:38:33.262Z,7.95
2023-02-01T22:41:01.952Z,8.00
2023-02-01T22:43:29.093Z,8.27
2023-02-01T22:46:01.225Z,9.43
2023-02-01T22:48:34.428Z,9.10
2023-02-01T22:51:02.219Z,8.98
2023-02-01T22:53:31.737Z,8.60
2023-02-01T22:56:06.705Z,9.10
2023-02-01T22:58:36.000Z,8.68
2023-02-01T23:01:14.513Z,9.38
2023-02-01T23:03:41.356Z,9.80
2023-02-01T23:06:09.287Z,8.90
2023-02-01T23:08:36.107Z,8.80
2023-02-01T23:11:06.506Z,9.05
2023-02-01T23:13:34.467Z,8.52
2023-02-01T23:16:08.330Z,8.98
2023-02-01T23:18:35.366Z,9.07
2023-02-01T23:21:04.099Z,8.77
2023-02-01T23:23:30.848Z,8.85
2023-02-01T23:25:57.655Z,9.20
2023-02-01T23:28:24.549Z,9.13
2023-02-01T23:30:51.336Z,8.98
2023-02-01T23:33:18.162Z,8.63
2023-02-01T23:35:57.663Z,7.65
2023-02-01T23:38:25.334Z,8.93
2023-02-01T23:40:56.688Z,8.10
2023-02-01T23:43:42.189Z,8.82
2023-02-01T23:46:09.189Z,9.43
2023-02-01T23:48:36.507Z,8.98
2023-02-01T23:51:03.386Z,8.77
2023-02-01T23:53:30.114Z,8.80
2023-02-01T23:55:56.872Z,8.48
2023-02-01T23:58:23.863Z,8.55
